TimeEST,TemperatureF,Dew PointF,Humidity,Sea Level PressureIn,VisibilityMPH,Wind Direction,Wind SpeedMPH,Gust SpeedMPH,PrecipitationIn,Events,Conditions,WindDirDegrees,DateUTC
12:54 AM,35.1,26.1,70,30.35,10.0,East,6.9,-,N/A,,Overcast,80,2013-01-11 05:54:00
1:54 AM,35.1,26.1,70,30.30,10.0,NE,9.2,-,N/A,,Overcast,50,2013-01-11 06:54:00
2:54 AM,35.1,26.1,70,30.27,10.0,ENE,4.6,-,N/A,,Overcast,60,2013-01-11 07:54:00
3:54 AM,41.0,23.0,49,30.23,10.0,SE,9.2,-,0.00,Rain,Light Rain,140,2013-01-11 08:54:00
4:54 AM,42.1,24.1,49,30.19,10.0,SE,8.1,-,0.01,,Overcast,140,2013-01-11 09:54:00
5:54 AM,44.1,23.0,43,30.15,10.0,SE,6.9,-,N/A,,Overcast,130,2013-01-11 10:54:00
6:54 AM,42.8,26.6,53,30.11,10.0,SE,6.9,-,N/A,Rain,Light Rain,140,2013-01-11 11:54:00
7:54 AM,42.8,28.4,57,30.10,10.0,SE,8.1,-,N/A,Rain,Light Rain,140,2013-01-11 12:54:00
8:54 AM,41.0,32.0,70,30.11,9.0,SSE,11.5,-,0.02,Rain,Light Rain,150,2013-01-11 13:54:00
9:54 AM,43.0,33.1,68,30.07,10.0,SSE,9.2,-,0.00,,Overcast,150,2013-01-11 14:54:00
10:54 AM,45.0,34.0,65,30.02,10.0,SSE,8.1,-,0.00,Rain,Light Rain,150,2013-01-11 15:54:00
11:54 AM,48.0,39.0,71,29.96,10.0,South,11.5,-,0.01,,Overcast,180,2013-01-11 16:54:00
12:54 PM,48.9,39.0,69,29.93,10.0,SSE,10.4,-,0.00,Rain,Light Rain,150,2013-01-11 17:54:00
1:54 PM,48.0,42.1,80,29.91,8.0,South,17.3,-,0.00,Rain,Light Rain,180,2013-01-11 18:54:00
2:54 PM,46.0,41.0,83,29.89,6.0,South,20.7,29.9,0.04,Rain,Light Rain,170,2013-01-11 19:54:00
3:54 PM,46.0,41.0,83,29.89,10.0,South,8.1,-,0.00,,Overcast,170,2013-01-11 20:54:00
4:26 PM,48.2,42.8,82,29.89,10.0,SSW,16.1,-,N/A,,Overcast,200,2013-01-11 21:26:00
4:54 PM,46.9,42.1,83,29.91,10.0,SSW,11.5,-,N/A,,Overcast,200,2013-01-11 21:54:00
5:54 PM,48.0,43.0,83,29.91,10.0,South,12.7,21.9,N/A,,Overcast,190,2013-01-11 22:54:00
6:54 PM,48.0,44.1,86,29.93,10.0,SSW,12.7,-,0.01,,Overcast,200,2013-01-11 23:54:00
7:54 PM,48.9,44.1,83,29.94,10.0,SSW,15.0,21.9,N/A,,Overcast,200,2013-01-12 00:54:00
8:02 PM,48.2,44.6,87,29.92,10.0,SSW,13.8,-,N/A,,Overcast,200,2013-01-12 01:02:00
8:54 PM,48.9,45.0,86,29.94,10.0,South,11.5,-,N/A,,Overcast,190,2013-01-12 01:54:00
9:54 PM,50.0,45.0,83,29.94,10.0,SSW,12.7,-,N/A,,Overcast,210,2013-01-12 02:54:00
10:54 PM,50.0,45.0,83,29.95,10.0,SSW,10.4,-,N/A,,Overcast,200,2013-01-12 03:54:00
11:54 PM,50.0,45.0,83,29.94,10.0,SSW,10.4,-,N/A,,Overcast,200,2013-01-12 04:54:00